createdAt,value
2022-12-12T00:02:08.204Z,98688.81
2022-12-12T00:04:34.738Z,98683.94
2022-12-12T00:07:01.088Z,98687.97
2022-12-12T00:09:27.432Z,98701.22
2022-12-12T00:11:53.863Z,98692.94
2022-12-12T00:14:20.336Z,98693.53
2022-12-12T00:16:46.665Z,98694.72
2022-12-12T00:19:13.161Z,98697.75
2022-12-12T00:21:39.550Z,98693.19
2022-12-12T00:24:06.861Z,98697.63
2022-12-12T00:26:34.816Z,98703.75
2022-12-12T00:29:02.566Z,98694.41
2022-12-12T00:31:29.177Z,98706.50
2022-12-12T00:33:56.547Z,98694.56
2022-12-12T00:36:29.423Z,98691.69
2022-12-12T00:38:56.917Z,98691.47
2022-12-12T00:41:24.158Z,98698.63
2022-12-12T00:43:51.253Z,98697.03
2022-12-12T00:46:20.735Z,98703.59
2022-12-12T00:48:47.710Z,98711.38
2022-12-12T00:51:18.298Z,98711.59
2022-12-12T00:53:45.145Z,98715.97
2022-12-12T00:56:11.809Z,98710.72
2022-12-12T00:58:38.207Z,98715.31
2022-12-12T01:01:12.914Z,98713.44
2022-12-12T01:03:41.416Z,98716.84
2022-12-12T01:06:08.679Z,98715.97
2022-12-12T01:08:35.199Z,98715.97
2022-12-12T01:11:01.537Z,98715.13
2022-12-12T01:13:28.292Z,98720.41
2022-12-12T01:15:54.660Z,98719.50
2022-12-12T01:18:21.402Z,98722.13
2022-12-12T01:20:47.824Z,98724.75
2022-12-12T01:23:14.368Z,98725.69
2022-12-12T01:25:41.356Z,98732.00
2022-12-12T01:28:08.042Z,98729.28
2022-12-12T01:30:34.512Z,98733.28
2022-12-12T01:33:00.891Z,98734.59
2022-12-12T01:35:27.649Z,98729.75
2022-12-12T01:37:54.265Z,98737.06
2022-12-12T01:40:24.466Z,98736.22
2022-12-12T01:42:51.162Z,98740.81
2022-12-12T01:45:55.155Z,98741.66
2022-12-12T01:48:23.486Z,98743.38
2022-12-12T01:50:50.711Z,98738.84
2022-12-12T01:53:19.264Z,98745.75
2022-12-12T01:55:48.010Z,98742.53
2022-12-12T01:58:15.297Z,98753.06
2022-12-12T02:00:42.172Z,98750.50
2022-12-12T02:03:09.206Z,98745.25
2022-12-12T02:05:51.408Z,98758.34
2022-12-12T02:08:21.103Z,98744.28
2022-12-12T02:10:47.833Z,98750.59
2022-12-12T02:13:19.451Z,98746.34
2022-12-12T02:16:09.840Z,98751.00
2022-12-12T02:18:56.993Z,98752.97
2022-12-12T02:21:42.124Z,98751.38
2022-12-12T02:24:14.443Z,98758.41
2022-12-12T02:26:49.871Z,98753.94
2022-12-12T02:29:31.497Z,98758.84
2022-12-12T02:32:32.389Z,98754.75
2022-12-12T02:35:20.161Z,98759.94
2022-12-12T02:38:07.389Z,98754.00
2022-12-12T02:40:48.837Z,98757.56
2022-12-12T02:43:40.165Z,98761.22
2022-12-12T02:46:18.350Z,98757.81
2022-12-12T02:48:54.365Z,98758.69
2022-12-12T02:51:21.507Z,98762.41
2022-12-12T02:53:47.938Z,98764.03
2022-12-12T02:56:44.708Z,98757.13
2022-12-12T02:59:17.485Z,98756.97
2022-12-12T03:02:12.677Z,98753.56
2022-12-12T03:05:08.290Z,98753.56
2022-12-12T03:08:04.187Z,98755.38
2022-12-12T03:10:30.755Z,98763.44
2022-12-12T03:13:06.239Z,98757.28
2022-12-12T03:15:57.535Z,98759.69
2022-12-12T03:18:36.570Z,98761.41
2022-12-12T03:21:10.411Z,98765.78
2022-12-12T03:23:44.974Z,98757.81
2022-12-12T03:26:19.120Z,98753.41
2022-12-12T03:28:50.828Z,98760.44
2022-12-12T03:31:22.622Z,98756.28
2022-12-12T03:33:55.754Z,98750.00
2022-12-12T03:36:29.279Z,98754.41
2022-12-12T03:39:06.059Z,98756.28
2022-12-12T03:41:40.682Z,98752.91
2022-12-12T03:44:21.065Z,98759.16
2022-12-12T03:47:01.728Z,98759.00
2022-12-12T03:49:35.478Z,98761.47
2022-12-12T03:52:10.579Z,98754.78
2022-12-12T03:54:42.536Z,98763.75
2022-12-12T03:57:20.313Z,98756.53
2022-12-12T04:00:08.407Z,98764.63
2022-12-12T04:02:51.786Z,98764.78
2022-12-12T04:05:36.786Z,98763.06
2022-12-12T04:08:13.200Z,98769.19
2022-12-12T04:11:06.168Z,98764.78
2022-12-12T04:13:54.037Z,98772.59
2022-12-12T04:16:28.373Z,98765.72
2022-12-12T04:18:58.310Z,98769.28
2022-12-12T04:22:01.900Z,98767.59
2022-12-12T04:24:35.839Z,98767.06
2022-12-12T04:27:08.926Z,98770.06
2022-12-12T04:29:35.277Z,98772.59
2022-12-12T04:32:17.792Z,98774.38
2022-12-12T04:35:11.725Z,98781.44
2022-12-12T04:37:47.014Z,98781.50
2022-12-12T04:40:17.799Z,98791.28
2022-12-12T04:42:51.447Z,98785.16
2022-12-12T04:45:21.970Z,98794.66
2022-12-12T04:47:52.149Z,98792.13
2022-12-12T04:50:22.002Z,98788.66
2022-12-12T04:52:50.796Z,98794.75
2022-12-12T04:55:34.013Z,98794.81
2022-12-12T04:58:02.210Z,98792.38
2022-12-12T05:00:36.697Z,98802.72
2022-12-12T05:03:24.714Z,98803.53
2022-12-12T05:05:59.541Z,98808.06
2022-12-12T05:08:42.882Z,98800.78
2022-12-12T05:11:11.078Z,98799.19
2022-12-12T05:13:40.504Z,98806.31
2022-12-12T05:16:25.573Z,98798.34
2022-12-12T05:18:52.010Z,98796.63
2022-12-12T05:21:18.638Z,98800.09
2022-12-12T05:23:45.235Z,98804.16
2022-12-12T05:26:32.142Z,98804.16
2022-12-12T05:29:05.232Z,98803.16
2022-12-12T05:31:36.304Z,98809.19
2022-12-12T05:34:03.728Z,98810.91
2022-12-12T05:36:30.362Z,98812.34
2022-12-12T05:38:57.698Z,98810.97
2022-12-12T05:41:24.148Z,98817.16
2022-12-12T05:43:50.550Z,98806.88
2022-12-12T05:46:17.106Z,98813.75
2022-12-12T05:48:44.431Z,98819.88
2022-12-12T05:51:10.839Z,98824.06
2022-12-12T05:53:42.858Z,98814.28
2022-12-12T05:56:11.460Z,98817.75
2022-12-12T05:58:39.230Z,98822.25
2022-12-12T06:01:06.619Z,98823.38
2022-12-12T06:03:33.301Z,98825.22
2022-12-12T06:06:00.353Z,98824.28
2022-12-12T06:08:26.848Z,98825.06
2022-12-12T06:10:53.290Z,98823.53
2022-12-12T06:13:19.667Z,98824.78
2022-12-12T06:15:46.186Z,98826.63
2022-12-12T06:18:12.616Z,98831.97
2022-12-12T06:20:39.003Z,98824.06
2022-12-12T06:23:05.644Z,98840.81
2022-12-12T06:25:32.020Z,98828.50
2022-12-12T06:27:59.217Z,98839.72
2022-12-12T06:30:26.110Z,98826.41
2022-12-12T06:32:52.602Z,98832.50
2022-12-12T06:35:19.048Z,98833.91
2022-12-12T06:37:45.487Z,98836.78
2022-12-12T06:40:12.573Z,98839.63
2022-12-12T06:42:43.217Z,98836.41
2022-12-12T06:45:13.073Z,98844.22
2022-12-12T06:47:40.174Z,98832.84
2022-12-12T06:50:06.906Z,98844.97
2022-12-12T06:52:33.332Z,98837.06
2022-12-12T06:54:59.787Z,98846.75
2022-12-12T06:57:26.953Z,98843.22
2022-12-12T06:59:53.366Z,98845.75
2022-12-12T07:02:23.254Z,98843.91
2022-12-12T07:04:55.322Z,98848.28
2022-12-12T07:07:21.728Z,98847.28
2022-12-12T07:09:48.275Z,98849.84
2022-12-12T07:12:14.832Z,98843.44
2022-12-12T07:14:41.248Z,98853.22
2022-12-12T07:17:07.681Z,98862.56
2022-12-12T07:19:34.126Z,98861.88
2022-12-12T07:22:05.724Z,98866.91
2022-12-12T07:24:35.816Z,98863.25
2022-12-12T07:27:02.232Z,98864.28
2022-12-12T07:29:28.699Z,98865.94
2022-12-12T07:31:55.131Z,98864.09
2022-12-12T07:34:21.560Z,98870.75
2022-12-12T07:36:48.031Z,98867.97
2022-12-12T07:39:20.164Z,98866.66
2022-12-12T07:41:47.259Z,98864.72
2022-12-12T07:44:13.676Z,98872.47
2022-12-12T07:46:40.142Z,98868.91
2022-12-12T07:49:06.875Z,98872.63
2022-12-12T07:51:33.361Z,98874.06
2022-12-12T07:53:59.790Z,98863.56
2022-12-12T07:56:26.182Z,98862.56
2022-12-12T07:58:53.509Z,98867.66
2022-12-12T08:01:23.392Z,98871.06
2022-12-12T08:03:50.237Z,98872.06
2022-12-12T08:06:18.040Z,98875.31
2022-12-12T08:08:46.332Z,98873.53
2022-12-12T08:11:15.607Z,98868.44
2022-12-12T08:13:42.854Z,98869.03
2022-12-12T08:16:17.446Z,98866.78
2022-12-12T08:18:44.313Z,98880.75
2022-12-12T08:21:12.895Z,98875.22
2022-12-12T08:23:40.387Z,98878.72
2022-12-12T08:26:12.569Z,98884.41
2022-12-12T08:28:41.342Z,98882.81
2022-12-12T08:31:08.780Z,98886.97
2022-12-12T08:33:36.643Z,98894.78
2022-12-12T08:36:18.466Z,98899.00
2022-12-12T08:38:45.435Z,98896.84
2022-12-12T08:41:13.146Z,98897.66
2022-12-12T08:43:40.468Z,98902.56
2022-12-12T08:46:12.301Z,98897.91
2022-12-12T08:48:41.937Z,98906.41
2022-12-12T08:51:08.756Z,98910.41
2022-12-12T08:53:35.276Z,98903.63
2022-12-12T08:56:01.794Z,98902.47
2022-12-12T08:58:28.184Z,98898.81
2022-12-12T09:00:56.690Z,98898.19
2022-12-12T09:03:28.942Z,98894.59
2022-12-12T09:05:55.992Z,98893.97
2022-12-12T09:11:24.374Z,98893.22
2022-12-12T09:13:50.835Z,98896.00
2022-12-12T09:16:19.862Z,98901.19
2022-12-12T09:18:49.370Z,98903.31
2022-12-12T09:21:16.193Z,98904.50
2022-12-12T09:23:42.590Z,98908.94
2022-12-12T09:26:09.834Z,98916.41
2022-12-12T09:28:36.513Z,98916.16
2022-12-12T09:31:07.864Z,98918.28
2022-12-12T09:33:34.891Z,98925.28
2022-12-12T09:36:03.709Z,98919.84
2022-12-12T09:38:30.440Z,98917.00
2022-12-12T09:41:03.768Z,98920.44
2022-12-12T09:43:34.762Z,98923.47
2022-12-12T09:46:02.936Z,98930.00
2022-12-12T09:48:35.571Z,98922.63
2022-12-12T09:51:01.977Z,98917.09
2022-12-12T09:53:28.956Z,98913.00
2022-12-12T09:55:59.913Z,98911.81
2022-12-12T09:58:29.355Z,98913.16
2022-12-12T10:01:18.262Z,98914.00
2022-12-12T10:04:14.741Z,98914.69
2022-12-12T10:06:52.825Z,98916.63
2022-12-12T10:09:37.667Z,98920.97
2022-12-12T10:12:08.626Z,98915.28
2022-12-12T10:14:45.688Z,98925.06
2022-12-12T10:17:17.621Z,98908.81
2022-12-12T10:19:49.120Z,98918.53
2022-12-12T10:23:02.255Z,98912.72
2022-12-12T10:25:41.724Z,98910.06
2022-12-12T10:28:16.751Z,98914.97
2022-12-12T10:30:49.183Z,98917.34
2022-12-12T10:33:35.791Z,98909.59
2022-12-12T10:36:14.267Z,98913.28
2022-12-12T10:38:46.537Z,98909.19
2022-12-12T10:41:38.530Z,98907.44
2022-12-12T10:44:41.763Z,98910.25
2022-12-12T10:47:12.810Z,98907.84
2022-12-12T10:49:40.057Z,98902.41
2022-12-12T10:52:18.866Z,98895.34
2022-12-12T10:54:49.132Z,98904.97
2022-12-12T10:57:33.667Z,98902.41
2022-12-12T11:00:00.264Z,98899.59
2022-12-12T11:02:43.886Z,98901.75
2022-12-12T11:05:25.096Z,98891.53
2022-12-12T11:08:31.292Z,98887.59
2022-12-12T11:11:09.966Z,98881.63
2022-12-12T11:13:57.200Z,98878.66
2022-12-12T11:16:26.817Z,98876.53
2022-12-12T11:19:00.845Z,98874.63
2022-12-12T11:21:28.330Z,98883.69
2022-12-12T11:23:57.351Z,98875.75
2022-12-12T11:26:26.682Z,98878.19
2022-12-12T11:28:59.306Z,98878.19
2022-12-12T11:31:29.459Z,98876.88
2022-12-12T11:33:59.267Z,98880.47
2022-12-12T11:36:34.398Z,98866.41
2022-12-12T11:39:12.944Z,98870.84
2022-12-12T11:41:59.699Z,98873.31
2022-12-12T11:44:30.804Z,98871.75
2022-12-12T11:46:57.223Z,98867.22
2022-12-12T11:49:23.648Z,98865.56
2022-12-12T11:51:50.003Z,98862.53
2022-12-12T11:54:25.384Z,98862.25
2022-12-12T11:57:28.430Z,98859.44
2022-12-12T12:00:15.295Z,98855.84
2022-12-12T12:02:53.557Z,98859.06
2022-12-12T12:05:41.303Z,98851.44
2022-12-12T12:08:10.714Z,98850.75
2022-12-12T12:11:16.083Z,98852.06
2022-12-12T12:13:45.470Z,98846.44
2022-12-12T12:16:40.996Z,98855.88
2022-12-12T12:19:13.939Z,98844.44
2022-12-12T12:21:46.909Z,98836.81
2022-12-12T12:24:48.624Z,98845.50
2022-12-12T12:27:27.443Z,98851.34
2022-12-12T12:30:03.024Z,98848.13
2022-12-12T12:32:46.522Z,98844.75
2022-12-12T12:35:24.246Z,98855.88
2022-12-12T12:38:05.673Z,98852.28
2022-12-12T12:40:46.222Z,98845.78
2022-12-12T12:43:35.954Z,98840.84
2022-12-12T12:46:25.988Z,98838.22
2022-12-12T12:49:24.199Z,98831.50
2022-12-12T12:51:56.605Z,98833.41
2022-12-12T12:54:46.566Z,98832.56
2022-12-12T12:57:20.214Z,98831.31
2022-12-12T12:59:55.030Z,98824.56
2022-12-12T13:02:37.229Z,98815.22
2022-12-12T13:05:37.091Z,98816.25
2022-12-12T13:08:26.794Z,98808.91
2022-12-12T13:10:58.910Z,98811.31
2022-12-12T13:13:30.633Z,98810.41
2022-12-12T13:16:02.502Z,98816.81
2022-12-12T13:18:44.560Z,98817.09
2022-12-12T13:21:25.904Z,98812.84
2022-12-12T13:24:07.841Z,98817.56
2022-12-12T13:26:57.464Z,98822.69
2022-12-12T13:29:42.468Z,98812.03
2022-12-12T13:32:20.990Z,98818.31
2022-12-12T13:34:51.360Z,98818.22
2022-12-12T13:37:21.963Z,98818.03
2022-12-12T13:39:59.515Z,98819.38
2022-12-12T13:42:25.954Z,98812.47
2022-12-12T13:44:52.391Z,98818.69
2022-12-12T13:47:21.848Z,98816.44
2022-12-12T13:49:52.644Z,98824.38
2022-12-12T13:52:25.054Z,98821.91
2022-12-12T13:54:54.728Z,98828.13
2022-12-12T13:57:23.896Z,98823.22
2022-12-12T13:59:53.119Z,98825.97
2022-12-12T14:02:32.322Z,98832.47
2022-12-12T14:05:21.385Z,98826.31
2022-12-12T14:07:52.917Z,98834.53
2022-12-12T14:10:26.703Z,98826.03
2022-12-12T14:12:54.903Z,98824.34
2022-12-12T14:15:31.352Z,98826.31
2022-12-12T14:18:02.670Z,98822.09
2022-12-12T14:20:36.254Z,98825.06
2022-12-12T14:23:28.029Z,98826.41
2022-12-12T14:25:54.953Z,98818.66
2022-12-12T14:28:27.451Z,98822.59
2022-12-12T14:30:58.802Z,98822.50
2022-12-12T14:33:44.067Z,98820.47
2022-12-12T14:36:27.570Z,98825.28
2022-12-12T14:39:06.095Z,98824.31
2022-12-12T14:41:37.496Z,98829.88
2022-12-12T14:44:37.938Z,98833.03
2022-12-12T14:47:07.579Z,98834.34
2022-12-12T14:49:33.974Z,98828.66
2022-12-12T14:52:00.511Z,98830.88
2022-12-12T14:54:27.337Z,98828.59
2022-12-12T14:56:59.026Z,98835.81
2022-12-12T14:59:29.668Z,98837.00
2022-12-12T15:02:05.226Z,98841.06
2022-12-12T15:04:38.302Z,98841.59
2022-12-12T15:07:21.231Z,98852.47
2022-12-12T15:09:48.963Z,98851.44
2022-12-12T15:12:16.713Z,98851.94
2022-12-12T15:14:49.454Z,98855.91
2022-12-12T15:17:46.742Z,98851.97
2022-12-12T15:20:22.765Z,98854.97
2022-12-12T15:23:00.371Z,98858.81
2022-12-12T15:25:37.265Z,98853.81
2022-12-12T15:28:03.837Z,98853.44
2022-12-12T15:30:39.407Z,98857.31
2022-12-12T15:33:14.938Z,98857.63
2022-12-12T15:35:49.886Z,98864.13
2022-12-12T15:38:16.340Z,98862.75
2022-12-12T15:40:47.878Z,98866.16
2022-12-12T15:43:20.132Z,98873.28
2022-12-12T15:45:50.157Z,98872.94
2022-12-12T15:48:18.955Z,98874.88
2022-12-12T15:50:45.856Z,98869.94
2022-12-12T15:53:15.274Z,98876.13
2022-12-12T15:56:00.430Z,98878.13
2022-12-12T15:58:50.748Z,98879.22
2022-12-12T16:01:21.940Z,98874.94
2022-12-12T16:04:03.492Z,98886.56
2022-12-12T16:06:42.013Z,98882.34
2022-12-12T16:09:21.763Z,98879.25
2022-12-12T16:11:58.775Z,98882.31
2022-12-12T16:14:29.655Z,98873.88
2022-12-12T16:17:03.461Z,98875.16
2022-12-12T16:19:56.427Z,98874.66
2022-12-12T16:22:39.439Z,98875.75
2022-12-12T16:25:25.788Z,98885.56
2022-12-12T16:27:58.676Z,98888.09
2022-12-12T16:30:26.449Z,98891.25
2022-12-12T16:32:52.946Z,98888.81
2022-12-12T16:35:23.240Z,98888.31
2022-12-12T16:37:51.159Z,98901.88
2022-12-12T16:40:20.173Z,98899.44
2022-12-12T16:43:09.355Z,98897.16
2022-12-12T16:45:37.483Z,98897.31
2022-12-12T16:48:27.239Z,98901.69
2022-12-12T16:51:00.642Z,98905.44
2022-12-12T16:53:27.140Z,98904.84
2022-12-12T16:55:54.651Z,98904.91
2022-12-12T16:58:21.429Z,98899.66
2022-12-12T17:00:49.015Z,98899.81
2022-12-12T17:03:17.029Z,98901.38
2022-12-12T17:05:45.256Z,98900.03
2022-12-12T17:08:13.014Z,98908.78
2022-12-12T17:10:39.443Z,98907.44
2022-12-12T17:13:07.667Z,98910.34
2022-12-12T17:15:34.444Z,98913.06
2022-12-12T17:18:01.318Z,98908.84
2022-12-12T17:20:28.691Z,98906.25
2022-12-12T17:23:29.353Z,98906.47
2022-12-12T17:26:02.843Z,98899.63
2022-12-12T17:28:30.496Z,98893.53
2022-12-12T17:30:56.908Z,98896.44
2022-12-12T17:33:23.286Z,98894.84
2022-12-12T17:36:06.254Z,98898.56
2022-12-12T17:38:33.596Z,98897.78
2022-12-12T17:41:04.779Z,98896.91
2022-12-12T17:43:31.179Z,98903.09
2022-12-12T17:46:04.068Z,98902.03
2022-12-12T17:48:33.792Z,98892.66
2022-12-12T17:51:02.779Z,98898.63
2022-12-12T17:53:37.681Z,98902.03
2022-12-12T17:56:08.458Z,98906.38
2022-12-12T17:58:40.359Z,98904.59
2022-12-12T18:01:10.366Z,98910.56
2022-12-12T18:03:37.227Z,98909.72
2022-12-12T18:06:03.903Z,98909.91
2022-12-12T18:08:30.345Z,98914.63
2022-12-12T18:10:56.994Z,98905.31
2022-12-12T18:13:23.541Z,98907.75
2022-12-12T18:15:59.262Z,98897.97
2022-12-12T18:18:26.943Z,98899.75
2022-12-12T18:20:54.036Z,98901.94
2022-12-12T18:23:20.555Z,98894.66
2022-12-12T18:25:47.008Z,98898.78
2022-12-12T18:28:13.685Z,98904.47
2022-12-12T18:30:40.659Z,98896.78
2022-12-12T18:33:10.406Z,98892.72
2022-12-12T18:35:36.867Z,98889.28
2022-12-12T18:38:03.521Z,98893.50
2022-12-12T18:40:29.924Z,98894.19
2022-12-12T18:42:56.358Z,98896.44
2022-12-12T18:45:23.982Z,98899.56
2022-12-12T18:47:50.722Z,98902.31
2022-12-12T18:50:17.232Z,98903.84
2022-12-12T18:52:44.009Z,98898.59
2022-12-12T18:55:10.452Z,98898.53
2022-12-12T18:57:36.908Z,98900.09
2022-12-12T19:00:06.744Z,98903.72
2022-12-12T19:02:37.483Z,98902.84
2022-12-12T19:05:05.848Z,98905.84
2022-12-12T19:07:32.499Z,98903.25
2022-12-12T19:09:58.924Z,98910.03
2022-12-12T19:12:25.344Z,98913.44
2022-12-12T19:15:15.890Z,98912.94
2022-12-12T19:17:38.349Z,98907.56
2022-12-12T19:20:05.124Z,98910.56
2022-12-12T19:22:44.867Z,98912.41
2022-12-12T19:25:11.725Z,98907.19
2022-12-12T19:27:38.154Z,98914.09
2022-12-12T19:30:05.403Z,98909.59
2022-12-12T19:32:31.787Z,98905.19
2022-12-12T19:34:59.622Z,98898.53
2022-12-12T19:37:26.034Z,98885.34
2022-12-12T19:39:52.921Z,98895.75
2022-12-12T19:42:20.126Z,98891.91
2022-12-12T19:44:46.499Z,98897.28
2022-12-12T19:47:13.307Z,98906.78
2022-12-12T19:49:39.838Z,98909.50
2022-12-12T19:52:12.148Z,98913.78
2022-12-12T19:54:40.314Z,98910.34
2022-12-12T19:57:06.718Z,98913.84
2022-12-12T19:59:33.334Z,98927.81
2022-12-12T20:02:01.023Z,98923.56
2022-12-12T20:04:30.273Z,98927.44
2022-12-12T20:06:56.954Z,98931.44
2022-12-12T20:09:26.753Z,98919.69
2022-12-12T20:11:54.677Z,98919.22
2022-12-12T20:14:24.319Z,98918.63
2022-12-12T20:16:52.122Z,98923.94
2022-12-12T20:19:18.978Z,98915.41
2022-12-12T20:22:03.566Z,98918.19
2022-12-12T20:24:32.236Z,98912.28
2022-12-12T20:26:59.710Z,98917.97
2022-12-12T20:29:26.420Z,98913.78
2022-12-12T20:31:53.013Z,98913.72
2022-12-12T20:34:24.504Z,98912.94
2022-12-12T20:36:52.269Z,98914.63
2022-12-12T20:39:20.796Z,98905.09
2022-12-12T20:41:47.895Z,98901.75
2022-12-12T20:44:14.592Z,98903.63
2022-12-12T20:46:43.546Z,98908.84
2022-12-12T20:49:14.650Z,98913.06
2022-12-12T20:51:58.026Z,98911.63
2022-12-12T20:54:28.083Z,98913.44
2022-12-12T20:56:56.228Z,98910.97
2022-12-12T20:59:23.593Z,98906.13
2022-12-12T21:01:50.332Z,98905.09
2022-12-12T21:04:17.109Z,98901.66
2022-12-12T21:06:47.887Z,98916.72
2022-12-12T21:11:50.981Z,98913.59
2022-12-12T21:14:17.657Z,98916.22
2022-12-12T21:16:44.178Z,98915.34
2022-12-12T21:19:13.677Z,98913.78
2022-12-12T21:21:42.535Z,98921.19
2022-12-12T21:24:12.152Z,98915.22
2022-12-12T21:26:38.895Z,98917.13
2022-12-12T21:29:06.007Z,98914.63
2022-12-12T21:31:35.202Z,98924.75
2022-12-12T21:34:02.145Z,98910.81
2022-12-12T21:36:29.342Z,98919.88
2022-12-12T21:38:57.509Z,98926.97
2022-12-12T21:41:24.683Z,98921.97
2022-12-12T21:43:51.701Z,98920.16
2022-12-12T21:46:21.077Z,98925.72
2022-12-12T21:49:08.176Z,98916.94
2022-12-12T21:51:35.352Z,98917.25
2022-12-12T21:54:03.204Z,98914.69
2022-12-12T21:56:30.222Z,98914.78
2022-12-12T21:58:57.084Z,98915.09
2022-12-12T22:01:24.199Z,98911.50
2022-12-12T22:03:50.810Z,98912.59
2022-12-12T22:06:23.209Z,98911.41
2022-12-12T22:08:50.228Z,98901.44
2022-12-12T22:11:30.972Z,98908.75
2022-12-12T22:14:06.384Z,98915.13
2022-12-12T22:16:33.578Z,98917.78
2022-12-12T22:19:12.041Z,98907.09
2022-12-12T22:21:38.440Z,98911.78
2022-12-12T22:24:05.270Z,98911.09
2022-12-12T22:26:34.605Z,98914.81
2022-12-12T22:29:06.023Z,98915.09
2022-12-12T22:31:34.969Z,98914.31
2022-12-12T22:34:04.670Z,98921.44
2022-12-12T22:36:33.628Z,98917.38
2022-12-12T22:39:01.034Z,98913.34
2022-12-12T22:41:28.858Z,98916.31
2022-12-12T22:43:58.170Z,98914.47
2022-12-12T22:46:26.250Z,98920.91
2022-12-12T22:48:54.717Z,98924.66
2022-12-12T22:51:27.707Z,98913.44
2022-12-12T22:53:59.178Z,98916.31
2022-12-12T22:56:28.550Z,98908.47
2022-12-12T22:58:55.081Z,98907.63
2022-12-12T23:01:22.717Z,98896.47
2022-12-12T23:03:49.180Z,98904.38
2022-12-12T23:06:19.184Z,98902.94
2022-12-12T23:08:52.920Z,98901.22
2022-12-12T23:11:21.071Z,98893.44
2022-12-12T23:13:47.679Z,98891.59
2022-12-12T23:16:19.433Z,98884.66
2022-12-12T23:18:47.746Z,98892.59
2022-12-12T23:21:17.638Z,98874.41
2022-12-12T23:23:45.120Z,98876.88
2022-12-12T23:26:18.356Z,98873.94
2022-12-12T23:28:45.344Z,98871.59
2022-12-12T23:31:15.018Z,98875.38
2022-12-12T23:33:41.614Z,98873.59
2022-12-12T23:36:09.591Z,98873.91
2022-12-12T23:38:36.840Z,98866.91
2022-12-12T23:41:05.074Z,98866.25
2022-12-12T23:43:31.838Z,98862.00
2022-12-12T23:46:27.800Z,98869.03
2022-12-12T23:48:59.481Z,98865.69
2022-12-12T23:51:29.432Z,98861.44
2022-12-12T23:53:57.693Z,98869.19
2022-12-12T23:56:25.160Z,98861.59
2022-12-12T23:58:53.589Z,98854.44
